sensor_id;sensor_type;location;lat;lon;timestamp;P1;durP1;ratioP1;P2;durP2;ratioP2
37889;SDS011;23730;49.120;12.214;2022-07-06T05:09:34;6.28;;;2.40;;
37889;SDS011;23730;49.120;12.214;2022-07-06T05:14:36;6.80;;;2.40;;
37889;SDS011;23730;49.120;12.214;2022-07-06T05:19:40;6.78;;;2.45;;
37889;SDS011;23730;49.120;12.214;2022-07-06T05:24:42;4.95;;;2.30;;
37889;SDS011;23730;49.120;12.214;2022-07-06T05:29:45;8.00;;;2.70;;
37889;SDS011;23730;49.120;12.214;2022-07-06T05:34:47;6.28;;;2.75;;
37889;SDS011;23730;49.120;12.214;2022-07-06T05:39:53;6.05;;;2.55;;
37889;SDS011;23730;49.120;12.214;2022-07-06T05:44:56;9.85;;;2.17;;
37889;SDS011;23730;49.120;12.214;2022-07-06T05:50:00;4.95;;;2.08;;
37889;SDS011;23730;49.120;12.214;2022-07-06T05:55:22;7.43;;;2.88;;
37889;SDS011;23730;49.120;12.214;2022-07-06T06:00:25;6.63;;;2.70;;
37889;SDS011;23730;49.120;12.214;2022-07-06T06:05:32;8.98;;;2.67;;
37889;SDS011;23730;49.120;12.214;2022-07-06T06:10:39;8.05;;;2.90;;
37889;SDS011;23730;49.120;12.214;2022-07-06T06:15:44;8.02;;;2.42;;
37889;SDS011;23730;49.120;12.214;2022-07-06T06:20:48;5.88;;;2.47;;
37889;SDS011;23730;49.120;12.214;2022-07-06T06:25:50;9.82;;;2.58;;
37889;SDS011;23730;49.120;12.214;2022-07-06T06:30:52;6.90;;;2.97;;
37889;SDS011;23730;49.120;12.214;2022-07-06T06:35:54;7.07;;;2.63;;
37889;SDS011;23730;49.120;12.214;2022-07-06T06:40:56;7.22;;;2.60;;
37889;SDS011;23730;49.120;12.214;2022-07-06T06:45:59;7.18;;;2.75;;
37889;SDS011;23730;49.120;12.214;2022-07-06T06:51:01;7.45;;;2.80;;
37889;SDS011;23730;49.120;12.214;2022-07-06T06:56:02;10.13;;;2.83;;
37889;SDS011;23730;49.120;12.214;2022-07-06T07:01:05;6.45;;;2.65;;
37889;SDS011;23730;49.120;12.214;2022-07-06T07:06:07;7.82;;;2.88;;
37889;SDS011;23730;49.120;12.214;2022-07-06T07:11:09;10.40;;;2.60;;
37889;SDS011;23730;49.120;12.214;2022-07-06T07:16:11;9.60;;;2.85;;
37889;SDS011;23730;49.120;12.214;2022-07-06T07:21:13;6.00;;;2.70;;
37889;SDS011;23730;49.120;12.214;2022-07-06T07:26:15;9.25;;;2.92;;
37889;SDS011;23730;49.120;12.214;2022-07-06T07:31:18;7.03;;;2.60;;
37889;SDS011;23730;49.120;12.214;2022-07-06T07:36:20;6.80;;;2.70;;
37889;SDS011;23730;49.120;12.214;2022-07-06T07:41:22;5.15;;;2.65;;
37889;SDS011;23730;49.120;12.214;2022-07-06T07:46:24;9.50;;;2.75;;
37889;SDS011;23730;49.120;12.214;2022-07-06T07:51:26;5.43;;;2.58;;
37889;SDS011;23730;49.120;12.214;2022-07-06T07:56:28;7.72;;;2.92;;
37889;SDS011;23730;49.120;12.214;2022-07-06T08:01:30;7.90;;;2.97;;
37889;SDS011;23730;49.120;12.214;2022-07-06T08:06:32;7.00;;;2.72;;
37889;SDS011;23730;49.120;12.214;2022-07-06T08:11:35;4.65;;;2.13;;
37889;SDS011;23730;49.120;12.214;2022-07-06T08:16:37;5.75;;;2.17;;
37889;SDS011;23730;49.120;12.214;2022-07-06T08:21:39;5.97;;;2.08;;
37889;SDS011;23730;49.120;12.214;2022-07-06T08:26:41;5.00;;;2.03;;
37889;SDS011;23730;49.120;12.214;2022-07-06T08:31:43;4.90;;;1.67;;
37889;SDS011;23730;49.120;12.214;2022-07-06T08:36:56;6.00;;;1.88;;
37889;SDS011;23730;49.120;12.214;2022-07-06T08:41:58;5.85;;;2.05;;
37889;SDS011;23730;49.120;12.214;2022-07-06T08:47:02;6.38;;;1.50;;
37889;SDS011;23730;49.120;12.214;2022-07-06T08:52:12;6.05;;;1.83;;
37889;SDS011;23730;49.120;12.214;2022-07-06T08:57:15;4.40;;;1.70;;
37889;SDS011;23730;49.120;12.214;2022-07-06T09:02:18;9.32;;;1.75;;
37889;SDS011;23730;49.120;12.214;2022-07-06T09:07:28;3.72;;;1.60;;
37889;SDS011;23730;49.120;12.214;2022-07-06T09:12:52;7.35;;;1.73;;
37889;SDS011;23730;49.120;12.214;2022-07-06T09:17:55;5.15;;;1.48;;
37889;SDS011;23730;49.120;12.214;2022-07-06T09:23:03;6.30;;;1.48;;
37889;SDS011;23730;49.120;12.214;2022-07-06T09:28:14;6.35;;;1.58;;
37889;SDS011;23730;49.120;12.214;2022-07-06T09:33:19;6.55;;;1.35;;
37889;SDS011;23730;49.120;12.214;2022-07-06T09:38:22;6.70;;;1.70;;
37889;SDS011;23730;49.120;12.214;2022-07-06T09:43:28;4.95;;;1.60;;
37889;SDS011;23730;49.120;12.214;2022-07-06T09:48:32;4.13;;;1.50;;
37889;SDS011;23730;49.120;12.214;2022-07-06T09:53:36;4.03;;;1.60;;
37889;SDS011;23730;49.120;12.214;2022-07-06T09:58:38;5.43;;;1.58;;
37889;SDS011;23730;49.120;12.214;2022-07-06T10:04:00;3.72;;;1.35;;
37889;SDS011;23730;49.120;12.214;2022-07-06T10:09:05;5.30;;;1.80;;
37889;SDS011;23730;49.120;12.214;2022-07-06T10:14:15;7.68;;;1.70;;
37889;SDS011;23730;49.120;12.214;2022-07-06T10:19:22;8.18;;;1.80;;
37889;SDS011;23730;49.120;12.214;2022-07-06T10:24:24;3.30;;;1.30;;
37889;SDS011;23730;49.120;12.214;2022-07-06T10:29:26;3.70;;;1.42;;
37889;SDS011;23730;49.120;12.214;2022-07-06T10:34:29;5.55;;;1.70;;
37889;SDS011;23730;49.120;12.214;2022-07-06T10:39:32;4.28;;;1.52;;
37889;SDS011;23730;49.120;12.214;2022-07-06T10:44:56;5.30;;;1.40;;
37889;SDS011;23730;49.120;12.214;2022-07-06T10:50:02;4.35;;;1.25;;
37889;SDS011;23730;49.120;12.214;2022-07-06T11:00:50;4.10;;;1.00;;
37889;SDS011;23730;49.120;12.214;2022-07-06T11:06:00;4.90;;;1.40;;
37889;SDS011;23730;49.120;12.214;2022-07-06T11:11:19;2.90;;;1.30;;
37889;SDS011;23730;49.120;12.214;2022-07-06T11:16:27;5.55;;;1.33;;
37889;SDS011;23730;49.120;12.214;2022-07-06T11:21:40;5.25;;;1.42;;
37889;SDS011;23730;49.120;12.214;2022-07-06T11:26:51;4.35;;;1.13;;
37889;SDS011;23730;49.120;12.214;2022-07-06T11:31:55;5.57;;;1.20;;
37889;SDS011;23730;49.120;12.214;2022-07-06T11:37:01;2.95;;;1.02;;
37889;SDS011;23730;49.120;12.214;2022-07-06T11:42:12;5.22;;;1.30;;
37889;SDS011;23730;49.120;12.214;2022-07-06T11:47:20;3.67;;;1.38;;
37889;SDS011;23730;49.120;12.214;2022-07-06T11:52:31;7.60;;;1.38;;
37889;SDS011;23730;49.120;12.214;2022-07-06T11:57:33;4.85;;;1.40;;
37889;SDS011;23730;49.120;12.214;2022-07-06T12:02:36;7.60;;;1.95;;
37889;SDS011;23730;49.120;12.214;2022-07-06T12:07:38;5.40;;;1.48;;
37889;SDS011;23730;49.120;12.214;2022-07-06T12:12:40;3.63;;;1.33;;
37889;SDS011;23730;49.120;12.214;2022-07-06T12:17:46;5.55;;;1.23;;
37889;SDS011;23730;49.120;12.214;2022-07-06T12:22:49;5.60;;;1.20;;
37889;SDS011;23730;49.120;12.214;2022-07-06T12:28:04;3.97;;;1.30;;
37889;SDS011;23730;49.120;12.214;2022-07-06T12:33:14;3.40;;;1.10;;
37889;SDS011;23730;49.120;12.214;2022-07-06T12:38:25;3.15;;;1.20;;
37889;SDS011;23730;49.120;12.214;2022-07-06T12:43:38;6.50;;;1.10;;
37889;SDS011;23730;49.120;12.214;2022-07-06T12:48:51;5.05;;;0.90;;
37889;SDS011;23730;49.120;12.214;2022-07-06T12:54:13;3.70;;;0.82;;
37889;SDS011;23730;49.120;12.214;2022-07-06T12:59:21;6.75;;;1.20;;
37889;SDS011;23730;49.120;12.214;2022-07-06T13:04:24;5.63;;;1.15;;
37889;SDS011;23730;49.120;12.214;2022-07-06T13:09:30;2.92;;;1.10;;
37889;SDS011;23730;49.120;12.214;2022-07-06T13:14:32;4.53;;;1.30;;
37889;SDS011;23730;49.120;12.214;2022-07-06T13:19:33;6.60;;;1.58;;
37889;SDS011;23730;49.120;12.214;2022-07-06T13:24:35;4.68;;;1.35;;
37889;SDS011;23730;49.120;12.214;2022-07-06T13:29:39;2.55;;;1.10;;
37889;SDS011;23730;49.120;12.214;2022-07-06T13:34:41;5.07;;;1.38;;
37889;SDS011;23730;49.120;12.214;2022-07-06T13:39:44;4.30;;;1.10;;
37889;SDS011;23730;49.120;12.214;2022-07-06T13:44:46;4.85;;;1.20;;
37889;SDS011;23730;49.120;12.214;2022-07-06T13:49:48;2.38;;;1.00;;
37889;SDS011;23730;49.120;12.214;2022-07-06T13:54:51;3.17;;;1.25;;
37889;SDS011;23730;49.120;12.214;2022-07-06T14:00:02;3.20;;;1.15;;
37889;SDS011;23730;49.120;12.214;2022-07-06T14:05:09;3.50;;;1.30;;
37889;SDS011;23730;49.120;12.214;2022-07-06T14:10:11;3.90;;;1.20;;
37889;SDS011;23730;49.120;12.214;2022-07-06T14:15:13;2.90;;;1.30;;
37889;SDS011;23730;49.120;12.214;2022-07-06T14:20:15;4.07;;;1.30;;
37889;SDS011;23730;49.120;12.214;2022-07-06T14:25:17;3.92;;;1.20;;
37889;SDS011;23730;49.120;12.214;2022-07-06T14:30:20;3.30;;;1.10;;
37889;SDS011;23730;49.120;12.214;2022-07-06T14:35:23;3.90;;;1.20;;
37889;SDS011;23730;49.120;12.214;2022-07-06T14:40:26;7.72;;;1.38;;
37889;SDS011;23730;49.120;12.214;2022-07-06T14:45:28;6.25;;;1.77;;
37889;SDS011;23730;49.120;12.214;2022-07-06T14:50:31;4.63;;;1.38;;
37889;SDS011;23730;49.120;12.214;2022-07-06T14:55:33;3.22;;;1.30;;
37889;SDS011;23730;49.120;12.214;2022-07-06T15:00:35;4.20;;;1.30;;
37889;SDS011;23730;49.120;12.214;2022-07-06T15:05:37;5.13;;;1.40;;
37889;SDS011;23730;49.120;12.214;2022-07-06T15:10:40;6.20;;;1.17;;
37889;SDS011;23730;49.120;12.214;2022-07-06T15:15:45;5.38;;;1.63;;
37889;SDS011;23730;49.120;12.214;2022-07-06T15:20:58;3.95;;;1.30;;
37889;SDS011;23730;49.120;12.214;2022-07-06T15:26:01;8.65;;;1.35;;
37889;SDS011;23730;49.120;12.214;2022-07-06T15:31:04;8.40;;;1.20;;
37889;SDS011;23730;49.120;12.214;2022-07-06T15:36:06;8.23;;;1.10;;
37889;SDS011;23730;49.120;12.214;2022-07-06T15:41:08;3.28;;;1.08;;
37889;SDS011;23730;49.120;12.214;2022-07-06T15:46:10;4.28;;;1.10;;
37889;SDS011;23730;49.120;12.214;2022-07-06T15:51:13;6.53;;;1.42;;
37889;SDS011;23730;49.120;12.214;2022-07-06T15:56:15;3.20;;;1.17;;
37889;SDS011;23730;49.120;12.214;2022-07-06T16:01:18;3.90;;;1.13;;
37889;SDS011;23730;49.120;12.214;2022-07-06T16:06:20;5.72;;;1.23;;
37889;SDS011;23730;49.120;12.214;2022-07-06T16:11:23;6.45;;;1.33;;
37889;SDS011;23730;49.120;12.214;2022-07-06T16:16:24;8.85;;;1.38;;
37889;SDS011;23730;49.120;12.214;2022-07-06T16:21:27;8.43;;;1.50;;
37889;SDS011;23730;49.120;12.214;2022-07-06T16:26:29;5.80;;;1.40;;
37889;SDS011;23730;49.120;12.214;2022-07-06T16:31:31;3.83;;;1.10;;
37889;SDS011;23730;49.120;12.214;2022-07-06T16:36:34;3.25;;;1.50;;
37889;SDS011;23730;49.120;12.214;2022-07-06T16:41:36;8.98;;;1.63;;
37889;SDS011;23730;49.120;12.214;2022-07-06T16:46:37;3.90;;;1.27;;
37889;SDS011;23730;49.120;12.214;2022-07-06T16:51:40;4.70;;;1.80;;
37889;SDS011;23730;49.120;12.214;2022-07-06T16:56:42;4.30;;;1.27;;
37889;SDS011;23730;49.120;12.214;2022-07-06T17:01:44;4.45;;;1.13;;
37889;SDS011;23730;49.120;12.214;2022-07-06T17:06:46;2.67;;;0.95;;
37889;SDS011;23730;49.120;12.214;2022-07-06T17:11:48;4.45;;;1.10;;
37889;SDS011;23730;49.120;12.214;2022-07-06T17:16:50;3.92;;;1.40;;
37889;SDS011;23730;49.120;12.214;2022-07-06T17:21:52;9.25;;;1.38;;
37889;SDS011;23730;49.120;12.214;2022-07-06T17:26:57;4.78;;;1.30;;
37889;SDS011;23730;49.120;12.214;2022-07-06T17:31:59;4.00;;;1.33;;
37889;SDS011;23730;49.120;12.214;2022-07-06T17:37:05;5.47;;;1.40;;
37889;SDS011;23730;49.120;12.214;2022-07-06T17:42:07;7.03;;;1.27;;
37889;SDS011;23730;49.120;12.214;2022-07-06T17:47:09;6.22;;;1.20;;
37889;SDS011;23730;49.120;12.214;2022-07-06T17:52:11;4.57;;;1.40;;
37889;SDS011;23730;49.120;12.214;2022-07-06T17:57:16;6.50;;;1.60;;
37889;SDS011;23730;49.120;12.214;2022-07-06T18:02:18;3.17;;;1.15;;
37889;SDS011;23730;49.120;12.214;2022-07-06T18:07:21;5.05;;;1.40;;
37889;SDS011;23730;49.120;12.214;2022-07-06T18:12:23;5.05;;;1.30;;
37889;SDS011;23730;49.120;12.214;2022-07-06T18:17:25;5.32;;;1.40;;
37889;SDS011;23730;49.120;12.214;2022-07-06T18:22:27;4.45;;;1.33;;
37889;SDS011;23730;49.120;12.214;2022-07-06T18:27:29;2.75;;;1.02;;
37889;SDS011;23730;49.120;12.214;2022-07-06T18:32:31;4.55;;;1.50;;
37889;SDS011;23730;49.120;12.214;2022-07-06T18:37:34;7.10;;;1.45;;
37889;SDS011;23730;49.120;12.214;2022-07-06T18:42:36;3.05;;;1.05;;
37889;SDS011;23730;49.120;12.214;2022-07-06T18:47:39;2.33;;;1.10;;
37889;SDS011;23730;49.120;12.214;2022-07-06T18:52:41;4.85;;;1.52;;
37889;SDS011;23730;49.120;12.214;2022-07-06T18:57:43;4.18;;;1.40;;
37889;SDS011;23730;49.120;12.214;2022-07-06T19:02:45;6.47;;;1.40;;
37889;SDS011;23730;49.120;12.214;2022-07-06T19:07:47;5.28;;;1.40;;
37889;SDS011;23730;49.120;12.214;2022-07-06T19:12:49;6.38;;;1.52;;
37889;SDS011;23730;49.120;12.214;2022-07-06T19:17:52;5.55;;;1.63;;
37889;SDS011;23730;49.120;12.214;2022-07-06T19:22:56;8.38;;;1.55;;
37889;SDS011;23730;49.120;12.214;2022-07-06T19:27:58;3.97;;;1.42;;
37889;SDS011;23730;49.120;12.214;2022-07-06T19:33:02;4.55;;;1.23;;
37889;SDS011;23730;49.120;12.214;2022-07-06T19:38:04;3.80;;;1.38;;
37889;SDS011;23730;49.120;12.214;2022-07-06T19:43:06;5.25;;;1.50;;
37889;SDS011;23730;49.120;12.214;2022-07-06T19:48:08;2.92;;;1.30;;
37889;SDS011;23730;49.120;12.214;2022-07-06T19:53:16;8.18;;;2.05;;
37889;SDS011;23730;49.120;12.214;2022-07-06T19:58:18;4.18;;;1.35;;
37889;SDS011;23730;49.120;12.214;2022-07-06T20:03:23;4.65;;;1.35;;
37889;SDS011;23730;49.120;12.214;2022-07-06T20:08:30;4.10;;;1.20;;
37889;SDS011;23730;49.120;12.214;2022-07-06T20:13:32;1.88;;;0.90;;
37889;SDS011;23730;49.120;12.214;2022-07-06T20:18:33;4.38;;;1.20;;
